sensor_id;sensor_type;location;lat;lon;timestamp;temperature;humidity
40828;DHT22;26549;50.918;5.338;2024-03-02T00:02:16;10.50;99.90
40828;DHT22;26549;50.918;5.338;2024-03-02T00:04:45;10.10;99.90
40828;DHT22;26549;50.918;5.338;2024-03-02T00:07:14;10.00;99.90
40828;DHT22;26549;50.918;5.338;2024-03-02T00:09:40;10.00;99.90
40828;DHT22;26549;50.918;5.338;2024-03-02T00:12:06;10.00;99.90
40828;DHT22;26549;50.918;5.338;2024-03-02T00:14:32;10.00;99.90
40828;DHT22;26549;50.918;5.338;2024-03-02T00:16:58;9.80;99.90
40828;DHT22;26549;50.918;5.338;2024-03-02T00:19:24;9.80;99.90
40828;DHT22;26549;50.918;5.338;2024-03-02T00:21:50;9.90;99.90
40828;DHT22;26549;50.918;5.338;2024-03-02T00:24:32;9.90;99.90
40828;DHT22;26549;50.918;5.338;2024-03-02T00:27:00;9.80;99.90
40828;DHT22;26549;50.918;5.338;2024-03-02T00:29:27;9.90;99.90
40828;DHT22;26549;50.918;5.338;2024-03-02T00:31:54;9.80;99.90
40828;DHT22;26549;50.918;5.338;2024-03-02T00:34:21;9.80;99.90
40828;DHT22;26549;50.918;5.338;2024-03-02T00:36:47;9.90;99.90
40828;DHT22;26549;50.918;5.338;2024-03-02T00:39:15;9.80;99.90
40828;DHT22;26549;50.918;5.338;2024-03-02T00:41:42;9.80;99.90
40828;DHT22;26549;50.918;5.338;2024-03-02T00:44:16;9.80;99.90
40828;DHT22;26549;50.918;5.338;2024-03-02T00:46:44;9.80;99.90
40828;DHT22;26549;50.918;5.338;2024-03-02T00:49:23;9.80;99.90
40828;DHT22;26549;50.918;5.338;2024-03-02T00:51:51;9.80;99.90
40828;DHT22;26549;50.918;5.338;2024-03-02T00:54:25;9.90;99.90
40828;DHT22;26549;50.918;5.338;2024-03-02T00:56:52;10.00;99.90
40828;DHT22;26549;50.918;5.338;2024-03-02T00:59:21;9.90;99.90
40828;DHT22;26549;50.918;5.338;2024-03-02T01:01:48;9.90;99.90
40828;DHT22;26549;50.918;5.338;2024-03-02T01:04:15;9.90;99.90
40828;DHT22;26549;50.918;5.338;2024-03-02T01:06:42;10.00;99.90
40828;DHT22;26549;50.918;5.338;2024-03-02T01:09:08;10.00;99.90
40828;DHT22;26549;50.918;5.338;2024-03-02T01:11:33;10.00;99.90
40828;DHT22;26549;50.918;5.338;2024-03-02T01:13:59;9.90;99.90
40828;DHT22;26549;50.918;5.338;2024-03-02T01:16:25;9.90;99.90
40828;DHT22;26549;50.918;5.338;2024-03-02T01:18:51;9.90;99.90
40828;DHT22;26549;50.918;5.338;2024-03-02T01:21:16;9.80;99.90
40828;DHT22;26549;50.918;5.338;2024-03-02T01:23:42;9.90;99.90
40828;DHT22;26549;50.918;5.338;2024-03-02T01:26:09;9.90;99.90
40828;DHT22;26549;50.918;5.338;2024-03-02T01:28:35;10.00;99.90
40828;DHT22;26549;50.918;5.338;2024-03-02T01:31:01;10.00;99.90
40828;DHT22;26549;50.918;5.338;2024-03-02T01:33:27;9.80;99.90
40828;DHT22;26549;50.918;5.338;2024-03-02T01:35:53;9.90;99.90
40828;DHT22;26549;50.918;5.338;2024-03-02T01:38:19;9.90;99.90
40828;DHT22;26549;50.918;5.338;2024-03-02T01:40:45;9.90;99.90
40828;DHT22;26549;50.918;5.338;2024-03-02T01:43:11;9.90;99.90
40828;DHT22;26549;50.918;5.338;2024-03-02T01:45:37;9.90;99.90
40828;DHT22;26549;50.918;5.338;2024-03-02T01:48:04;9.90;99.90
40828;DHT22;26549;50.918;5.338;2024-03-02T01:50:34;9.80;99.90
40828;DHT22;26549;50.918;5.338;2024-03-02T01:53:00;9.90;99.90
40828;DHT22;26549;50.918;5.338;2024-03-02T01:55:27;9.90;99.90
40828;DHT22;26549;50.918;5.338;2024-03-02T01:57:55;9.90;99.90
40828;DHT22;26549;50.918;5.338;2024-03-02T02:00:22;9.90;99.90
40828;DHT22;26549;50.918;5.338;2024-03-02T02:02:50;9.90;99.90
40828;DHT22;26549;50.918;5.338;2024-03-02T02:05:16;9.90;99.90
40828;DHT22;26549;50.918;5.338;2024-03-02T02:07:42;9.90;99.90
40828;DHT22;26549;50.918;5.338;2024-03-02T02:10:09;9.90;99.90
40828;DHT22;26549;50.918;5.338;2024-03-02T02:12:35;9.90;99.90
40828;DHT22;26549;50.918;5.338;2024-03-02T02:15:01;9.90;99.90
40828;DHT22;26549;50.918;5.338;2024-03-02T02:17:27;10.10;99.90
40828;DHT22;26549;50.918;5.338;2024-03-02T02:19:52;10.00;99.90
40828;DHT22;26549;50.918;5.338;2024-03-02T02:22:18;9.90;99.90
40828;DHT22;26549;50.918;5.338;2024-03-02T02:24:44;9.70;99.90
40828;DHT22;26549;50.918;5.338;2024-03-02T02:27:10;9.60;99.90
40828;DHT22;26549;50.918;5.338;2024-03-02T02:29:36;9.60;99.90
40828;DHT22;26549;50.918;5.338;2024-03-02T02:32:02;9.60;99.90
40828;DHT22;26549;50.918;5.338;2024-03-02T02:34:28;9.60;99.90
40828;DHT22;26549;50.918;5.338;2024-03-02T02:36:54;9.60;99.90
40828;DHT22;26549;50.918;5.338;2024-03-02T02:39:21;9.50;99.90
40828;DHT22;26549;50.918;5.338;2024-03-02T02:41:48;9.50;99.90
40828;DHT22;26549;50.918;5.338;2024-03-02T02:44:13;9.50;99.90
40828;DHT22;26549;50.918;5.338;2024-03-02T02:46:40;9.60;99.90
40828;DHT22;26549;50.918;5.338;2024-03-02T02:49:06;9.60;99.90
40828;DHT22;26549;50.918;5.338;2024-03-02T02:51:32;9.60;99.90
40828;DHT22;26549;50.918;5.338;2024-03-02T02:53:58;9.60;99.90
40828;DHT22;26549;50.918;5.338;2024-03-02T02:56:23;9.50;99.90
40828;DHT22;26549;50.918;5.338;2024-03-02T02:58:49;9.40;99.90
40828;DHT22;26549;50.918;5.338;2024-03-02T03:01:16;9.30;99.90
40828;DHT22;26549;50.918;5.338;2024-03-02T03:03:45;9.40;99.90
40828;DHT22;26549;50.918;5.338;2024-03-02T03:06:12;9.40;99.90
40828;DHT22;26549;50.918;5.338;2024-03-02T03:08:37;9.40;99.90
40828;DHT22;26549;50.918;5.338;2024-03-02T03:11:04;9.40;99.90
40828;DHT22;26549;50.918;5.338;2024-03-02T03:13:31;9.30;99.90
40828;DHT22;26549;50.918;5.338;2024-03-02T03:15:57;9.20;99.90
40828;DHT22;26549;50.918;5.338;2024-03-02T03:18:23;9.20;99.90
40828;DHT22;26549;50.918;5.338;2024-03-02T03:20:48;9.20;99.90
40828;DHT22;26549;50.918;5.338;2024-03-02T03:23:15;9.30;99.90
40828;DHT22;26549;50.918;5.338;2024-03-02T03:25:43;9.30;99.90
40828;DHT22;26549;50.918;5.338;2024-03-02T03:28:09;9.30;99.90
40828;DHT22;26549;50.918;5.338;2024-03-02T03:30:38;9.30;99.90
40828;DHT22;26549;50.918;5.338;2024-03-02T03:33:05;9.30;99.90
40828;DHT22;26549;50.918;5.338;2024-03-02T03:35:33;9.40;99.90
40828;DHT22;26549;50.918;5.338;2024-03-02T03:38:00;9.30;99.90
40828;DHT22;26549;50.918;5.338;2024-03-02T03:40:26;9.30;99.90
40828;DHT22;26549;50.918;5.338;2024-03-02T03:42:51;9.30;99.90
40828;DHT22;26549;50.918;5.338;2024-03-02T03:45:17;9.30;99.90
40828;DHT22;26549;50.918;5.338;2024-03-02T03:47:43;9.30;99.90
40828;DHT22;26549;50.918;5.338;2024-03-02T03:50:09;9.30;99.90
40828;DHT22;26549;50.918;5.338;2024-03-02T03:52:35;9.20;99.90
40828;DHT22;26549;50.918;5.338;2024-03-02T03:55:01;9.30;99.90
40828;DHT22;26549;50.918;5.338;2024-03-02T03:57:27;9.30;99.90
40828;DHT22;26549;50.918;5.338;2024-03-02T03:59:53;9.30;99.90
40828;DHT22;26549;50.918;5.338;2024-03-02T04:02:19;9.30;99.90
40828;DHT22;26549;50.918;5.338;2024-03-02T04:04:45;9.30;99.90
40828;DHT22;26549;50.918;5.338;2024-03-02T04:07:11;9.10;99.90
40828;DHT22;26549;50.918;5.338;2024-03-02T04:09:37;9.10;99.90
40828;DHT22;26549;50.918;5.338;2024-03-02T04:12:03;9.20;99.90
40828;DHT22;26549;50.918;5.338;2024-03-02T04:14:28;9.30;99.90
40828;DHT22;26549;50.918;5.338;2024-03-02T04:16:54;9.30;99.90
40828;DHT22;26549;50.918;5.338;2024-03-02T04:19:20;9.30;99.90
40828;DHT22;26549;50.918;5.338;2024-03-02T04:21:46;9.20;99.90
40828;DHT22;26549;50.918;5.338;2024-03-02T04:24:11;9.10;99.90
40828;DHT22;26549;50.918;5.338;2024-03-02T04:26:37;9.10;99.90
40828;DHT22;26549;50.918;5.338;2024-03-02T04:29:03;9.20;99.90
40828;DHT22;26549;50.918;5.338;2024-03-02T04:31:28;9.20;99.90
40828;DHT22;26549;50.918;5.338;2024-03-02T04:33:54;9.10;99.90
40828;DHT22;26549;50.918;5.338;2024-03-02T04:36:20;9.10;99.90
40828;DHT22;26549;50.918;5.338;2024-03-02T04:38:46;9.10;99.90
40828;DHT22;26549;50.918;5.338;2024-03-02T04:41:12;9.10;99.90
40828;DHT22;26549;50.918;5.338;2024-03-02T04:43:38;9.10;99.90
40828;DHT22;26549;50.918;5.338;2024-03-02T04:46:05;9.10;99.90
40828;DHT22;26549;50.918;5.338;2024-03-02T04:48:32;9.10;99.90
40828;DHT22;26549;50.918;5.338;2024-03-02T04:50:58;9.20;99.90
40828;DHT22;26549;50.918;5.338;2024-03-02T04:53:24;9.10;99.90
40828;DHT22;26549;50.918;5.338;2024-03-02T04:55:50;9.20;99.90
40828;DHT22;26549;50.918;5.338;2024-03-02T04:58:34;9.20;99.90
40828;DHT22;26549;50.918;5.338;2024-03-02T05:01:00;9.10;99.90
40828;DHT22;26549;50.918;5.338;2024-03-02T05:03:26;9.10;99.90
40828;DHT22;26549;50.918;5.338;2024-03-02T05:05:52;9.00;99.90
40828;DHT22;26549;50.918;5.338;2024-03-02T05:08:17;9.00;99.90
40828;DHT22;26549;50.918;5.338;2024-03-02T05:10:43;9.00;99.90
40828;DHT22;26549;50.918;5.338;2024-03-02T05:13:09;9.00;99.90
40828;DHT22;26549;50.918;5.338;2024-03-02T05:15:35;9.10;99.90
40828;DHT22;26549;50.918;5.338;2024-03-02T05:18:01;9.00;99.90
40828;DHT22;26549;50.918;5.338;2024-03-02T05:20:28;8.90;99.90
40828;DHT22;26549;50.918;5.338;2024-03-02T05:22:54;8.90;99.90
40828;DHT22;26549;50.918;5.338;2024-03-02T05:25:19;8.90;99.90
40828;DHT22;26549;50.918;5.338;2024-03-02T05:27:45;8.80;99.90
40828;DHT22;26549;50.918;5.338;2024-03-02T05:30:13;8.80;99.90
40828;DHT22;26549;50.918;5.338;2024-03-02T05:32:39;8.80;99.90
40828;DHT22;26549;50.918;5.338;2024-03-02T05:35:05;8.70;99.90
40828;DHT22;26549;50.918;5.338;2024-03-02T05:37:31;8.80;99.90
40828;DHT22;26549;50.918;5.338;2024-03-02T05:39:56;8.70;99.90
40828;DHT22;26549;50.918;5.338;2024-03-02T05:42:22;8.70;99.90
40828;DHT22;26549;50.918;5.338;2024-03-02T05:44:48;8.60;99.90
40828;DHT22;26549;50.918;5.338;2024-03-02T05:47:14;8.70;99.90
40828;DHT22;26549;50.918;5.338;2024-03-02T05:49:40;8.70;99.90
40828;DHT22;26549;50.918;5.338;2024-03-02T05:52:06;8.70;99.90
40828;DHT22;26549;50.918;5.338;2024-03-02T05:54:32;8.80;99.90
40828;DHT22;26549;50.918;5.338;2024-03-02T05:56:58;8.90;99.90
40828;DHT22;26549;50.918;5.338;2024-03-02T05:59:41;8.80;99.90
40828;DHT22;26549;50.918;5.338;2024-03-02T06:02:07;8.70;99.90
40828;DHT22;26549;50.918;5.338;2024-03-02T06:04:33;8.70;99.90
40828;DHT22;26549;50.918;5.338;2024-03-02T06:07:00;8.70;99.90
40828;DHT22;26549;50.918;5.338;2024-03-02T06:09:25;8.60;99.90
40828;DHT22;26549;50.918;5.338;2024-03-02T06:11:51;8.70;99.90
40828;DHT22;26549;50.918;5.338;2024-03-02T06:14:17;8.70;99.90
40828;DHT22;26549;50.918;5.338;2024-03-02T06:16:43;8.70;99.90
40828;DHT22;26549;50.918;5.338;2024-03-02T06:19:09;8.70;99.90
40828;DHT22;26549;50.918;5.338;2024-03-02T06:21:35;8.70;99.90
40828;DHT22;26549;50.918;5.338;2024-03-02T06:24:00;8.70;99.90
40828;DHT22;26549;50.918;5.338;2024-03-02T06:26:27;8.60;99.90
40828;DHT22;26549;50.918;5.338;2024-03-02T06:28:54;8.70;99.90
40828;DHT22;26549;50.918;5.338;2024-03-02T06:31:20;8.70;99.90
40828;DHT22;26549;50.918;5.338;2024-03-02T06:33:45;8.70;99.90
40828;DHT22;26549;50.918;5.338;2024-03-02T06:36:11;8.70;99.90
40828;DHT22;26549;50.918;5.338;2024-03-02T06:38:37;8.70;99.90
40828;DHT22;26549;50.918;5.338;2024-03-02T06:41:03;8.70;99.90
40828;DHT22;26549;50.918;5.338;2024-03-02T06:43:29;8.80;99.90
40828;DHT22;26549;50.918;5.338;2024-03-02T06:45:54;8.80;99.90
40828;DHT22;26549;50.918;5.338;2024-03-02T06:48:20;8.80;99.90
40828;DHT22;26549;50.918;5.338;2024-03-02T06:50:47;8.80;99.90
40828;DHT22;26549;50.918;5.338;2024-03-02T06:53:16;8.80;99.90
40828;DHT22;26549;50.918;5.338;2024-03-02T06:55:46;8.80;99.90
40828;DHT22;26549;50.918;5.338;2024-03-02T06:58:12;8.80;99.90
40828;DHT22;26549;50.918;5.338;2024-03-02T07:00:41;8.90;99.90
40828;DHT22;26549;50.918;5.338;2024-03-02T07:03:07;8.90;99.90
40828;DHT22;26549;50.918;5.338;2024-03-02T07:05:33;8.90;99.90
40828;DHT22;26549;50.918;5.338;2024-03-02T07:07:58;8.90;99.90
40828;DHT22;26549;50.918;5.338;2024-03-02T07:10:25;8.80;99.90
40828;DHT22;26549;50.918;5.338;2024-03-02T07:12:50;8.90;99.90
40828;DHT22;26549;50.918;5.338;2024-03-02T07:15:16;9.10;99.90
40828;DHT22;26549;50.918;5.338;2024-03-02T07:17:54;9.00;99.90
40828;DHT22;26549;50.918;5.338;2024-03-02T07:20:20;9.00;99.90
40828;DHT22;26549;50.918;5.338;2024-03-02T07:22:46;9.00;99.90
40828;DHT22;26549;50.918;5.338;2024-03-02T07:25:12;8.90;99.90
40828;DHT22;26549;50.918;5.338;2024-03-02T07:27:38;9.00;99.90
40828;DHT22;26549;50.918;5.338;2024-03-02T07:30:05;8.90;99.90
40828;DHT22;26549;50.918;5.338;2024-03-02T07:32:31;9.00;99.90
40828;DHT22;26549;50.918;5.338;2024-03-02T07:34:57;9.00;99.90
40828;DHT22;26549;50.918;5.338;2024-03-02T07:37:23;9.00;99.90
40828;DHT22;26549;50.918;5.338;2024-03-02T07:39:50;9.10;99.90
40828;DHT22;26549;50.918;5.338;2024-03-02T07:42:15;9.00;99.90
40828;DHT22;26549;50.918;5.338;2024-03-02T07:44:43;9.00;99.90
40828;DHT22;26549;50.918;5.338;2024-03-02T07:47:09;8.90;99.90
40828;DHT22;26549;50.918;5.338;2024-03-02T07:49:35;8.90;99.90
40828;DHT22;26549;50.918;5.338;2024-03-02T07:52:01;9.00;99.90
40828;DHT22;26549;50.918;5.338;2024-03-02T07:54:27;9.10;99.90
40828;DHT22;26549;50.918;5.338;2024-03-02T07:56:55;9.00;99.90
40828;DHT22;26549;50.918;5.338;2024-03-02T07:59:20;9.10;99.90
40828;DHT22;26549;50.918;5.338;2024-03-02T08:01:48;9.50;99.90
40828;DHT22;26549;50.918;5.338;2024-03-02T08:04:14;9.40;99.90
40828;DHT22;26549;50.918;5.338;2024-03-02T08:06:40;9.40;99.90
40828;DHT22;26549;50.918;5.338;2024-03-02T08:09:05;9.60;99.90
40828;DHT22;26549;50.918;5.338;2024-03-02T08:11:35;9.70;99.90
40828;DHT22;26549;50.918;5.338;2024-03-02T08:14:01;9.80;99.90
40828;DHT22;26549;50.918;5.338;2024-03-02T08:16:27;9.80;99.90
40828;DHT22;26549;50.918;5.338;2024-03-02T08:18:53;9.80;99.90
40828;DHT22;26549;50.918;5.338;2024-03-02T08:21:19;9.80;99.90
40828;DHT22;26549;50.918;5.338;2024-03-02T08:23:45;10.10;99.90
40828;DHT22;26549;50.918;5.338;2024-03-02T08:26:13;10.20;99.90
40828;DHT22;26549;50.918;5.338;2024-03-02T08:28:40;10.30;99.90
40828;DHT22;26549;50.918;5.338;2024-03-02T08:31:08;10.20;99.90
40828;DHT22;26549;50.918;5.338;2024-03-02T08:33:35;10.20;99.90
40828;DHT22;26549;50.918;5.338;2024-03-02T08:36:01;10.30;99.90
40828;DHT22;26549;50.918;5.338;2024-03-02T08:38:27;10.20;99.90
40828;DHT22;26549;50.918;5.338;2024-03-02T08:40:53;10.40;99.90
40828;DHT22;26549;50.918;5.338;2024-03-02T08:43:19;10.40;99.90
40828;DHT22;26549;50.918;5.338;2024-03-02T08:45:51;10.50;99.90
40828;DHT22;26549;50.918;5.338;2024-03-02T08:48:18;10.50;99.90
40828;DHT22;26549;50.918;5.338;2024-03-02T08:50:44;10.50;99.90
40828;DHT22;26549;50.918;5.338;2024-03-02T08:53:10;10.50;99.90
40828;DHT22;26549;50.918;5.338;2024-03-02T08:55:36;10.60;99.90
40828;DHT22;26549;50.918;5.338;2024-03-02T08:58:02;10.60;99.90
40828;DHT22;26549;50.918;5.338;2024-03-02T09:00:28;10.80;99.90
40828;DHT22;26549;50.918;5.338;2024-03-02T09:02:54;10.80;99.90
40828;DHT22;26549;50.918;5.338;2024-03-02T09:05:20;10.80;99.90
40828;DHT22;26549;50.918;5.338;2024-03-02T09:07:46;10.80;99.90
40828;DHT22;26549;50.918;5.338;2024-03-02T09:10:11;10.80;99.90
40828;DHT22;26549;50.918;5.338;2024-03-02T09:12:38;10.90;99.90
40828;DHT22;26549;50.918;5.338;2024-03-02T09:15:04;10.90;99.90
40828;DHT22;26549;50.918;5.338;2024-03-02T09:17:31;10.90;99.90
40828;DHT22;26549;50.918;5.338;2024-03-02T09:19:57;10.80;99.90
40828;DHT22;26549;50.918;5.338;2024-03-02T09:22:23;10.80;99.90
40828;DHT22;26549;50.918;5.338;2024-03-02T09:24:48;10.90;99.90
40828;DHT22;26549;50.918;5.338;2024-03-02T09:27:14;11.00;99.90
40828;DHT22;26549;50.918;5.338;2024-03-02T09:29:40;11.00;99.90
40828;DHT22;26549;50.918;5.338;2024-03-02T09:32:06;11.10;99.90
40828;DHT22;26549;50.918;5.338;2024-03-02T09:34:32;11.20;99.90
40828;DHT22;26549;50.918;5.338;2024-03-02T09:36:59;11.30;99.90
40828;DHT22;26549;50.918;5.338;2024-03-02T09:39:25;11.50;99.90
40828;DHT22;26549;50.918;5.338;2024-03-02T09:41:51;11.50;99.90
40828;DHT22;26549;50.918;5.338;2024-03-02T09:44:18;11.50;99.90
40828;DHT22;26549;50.918;5.338;2024-03-02T09:46:49;11.60;99.90
40828;DHT22;26549;50.918;5.338;2024-03-02T09:49:15;11.40;99.90
40828;DHT22;26549;50.918;5.338;2024-03-02T09:51:46;11.50;99.90
40828;DHT22;26549;50.918;5.338;2024-03-02T09:54:12;11.50;99.90
40828;DHT22;26549;50.918;5.338;2024-03-02T09:56:39;11.50;99.90
40828;DHT22;26549;50.918;5.338;2024-03-02T09:59:04;11.60;99.90
40828;DHT22;26549;50.918;5.338;2024-03-02T10:01:30;11.70;99.90
40828;DHT22;26549;50.918;5.338;2024-03-02T10:03:59;11.70;99.90
40828;DHT22;26549;50.918;5.338;2024-03-02T10:06:26;11.70;99.90
40828;DHT22;26549;50.918;5.338;2024-03-02T10:08:53;11.60;99.90
40828;DHT22;26549;50.918;5.338;2024-03-02T10:11:31;11.60;99.90
40828;DHT22;26549;50.918;5.338;2024-03-02T10:14:08;11.70;99.90
40828;DHT22;26549;50.918;5.338;2024-03-02T10:16:36;11.80;99.90
40828;DHT22;26549;50.918;5.338;2024-03-02T10:19:22;11.90;99.90
40828;DHT22;26549;50.918;5.338;2024-03-02T10:21:53;11.80;99.90
40828;DHT22;26549;50.918;5.338;2024-03-02T10:24:22;11.80;99.90
40828;DHT22;26549;50.918;5.338;2024-03-02T10:26:49;11.80;99.90
40828;DHT22;26549;50.918;5.338;2024-03-02T10:29:15;12.00;99.90
40828;DHT22;26549;50.918;5.338;2024-03-02T10:31:43;11.90;99.90
40828;DHT22;26549;50.918;5.338;2024-03-02T10:34:10;11.90;99.90
40828;DHT22;26549;50.918;5.338;2024-03-02T10:36:36;12.00;99.90
40828;DHT22;26549;50.918;5.338;2024-03-02T10:39:04;12.10;99.90
40828;DHT22;26549;50.918;5.338;2024-03-02T10:41:37;12.20;99.90
40828;DHT22;26549;50.918;5.338;2024-03-02T10:44:08;12.30;99.90
40828;DHT22;26549;50.918;5.338;2024-03-02T10:46:35;12.30;99.90
40828;DHT22;26549;50.918;5.338;2024-03-02T10:49:03;12.40;99.90
40828;DHT22;26549;50.918;5.338;2024-03-02T10:51:31;12.50;99.90
40828;DHT22;26549;50.918;5.338;2024-03-02T10:54:01;12.50;99.90
40828;DHT22;26549;50.918;5.338;2024-03-02T10:56:31;12.60;99.90
40828;DHT22;26549;50.918;5.338;2024-03-02T11:01:56;12.90;99.90
40828;DHT22;26549;50.918;5.338;2024-03-02T11:04:24;13.00;99.90
40828;DHT22;26549;50.918;5.338;2024-03-02T11:06:51;13.10;99.90
40828;DHT22;26549;50.918;5.338;2024-03-02T11:09:22;13.00;99.90
40828;DHT22;26549;50.918;5.338;2024-03-02T11:12:16;13.00;99.90
40828;DHT22;26549;50.918;5.338;2024-03-02T11:14:42;13.10;99.90
40828;DHT22;26549;50.918;5.338;2024-03-02T11:17:14;13.30;99.90
40828;DHT22;26549;50.918;5.338;2024-03-02T11:19:44;13.30;99.90
40828;DHT22;26549;50.918;5.338;2024-03-02T11:22:11;13.30;99.90
40828;DHT22;26549;50.918;5.338;2024-03-02T11:24:37;13.40;99.90
40828;DHT22;26549;50.918;5.338;2024-03-02T11:27:05;13.50;99.90
40828;DHT22;26549;50.918;5.338;2024-03-02T11:32:14;13.60;99.90
40828;DHT22;26549;50.918;5.338;2024-03-02T11:34:42;13.70;99.90
40828;DHT22;26549;50.918;5.338;2024-03-02T11:37:19;13.70;99.90
40828;DHT22;26549;50.918;5.338;2024-03-02T11:39:51;13.60;99.90
40828;DHT22;26549;50.918;5.338;2024-03-02T11:42:17;13.60;99.90
40828;DHT22;26549;50.918;5.338;2024-03-02T11:44:45;13.50;99.90
40828;DHT22;26549;50.918;5.338;2024-03-02T11:47:19;13.50;99.90
40828;DHT22;26549;50.918;5.338;2024-03-02T11:49:49;13.50;99.90
40828;DHT22;26549;50.918;5.338;2024-03-02T11:52:16;13.60;99.90
40828;DHT22;26549;50.918;5.338;2024-03-02T11:54:45;13.50;99.90
40828;DHT22;26549;50.918;5.338;2024-03-02T11:57:19;13.70;99.90
40828;DHT22;26549;50.918;5.338;2024-03-02T11:59:47;13.80;99.90
40828;DHT22;26549;50.918;5.338;2024-03-02T12:02:16;13.70;99.90
40828;DHT22;26549;50.918;5.338;2024-03-02T12:04:43;13.90;99.90
40828;DHT22;26549;50.918;5.338;2024-03-02T12:07:10;13.90;99.90
40828;DHT22;26549;50.918;5.338;2024-03-02T12:09:37;14.00;99.90
40828;DHT22;26549;50.918;5.338;2024-03-02T12:12:07;13.90;99.90
40828;DHT22;26549;50.918;5.338;2024-03-02T12:14:35;14.10;99.90
40828;DHT22;26549;50.918;5.338;2024-03-02T12:17:02;14.10;99.90
40828;DHT22;26549;50.918;5.338;2024-03-02T12:19:28;14.10;99.90
40828;DHT22;26549;50.918;5.338;2024-03-02T12:21:57;14.10;99.90
40828;DHT22;26549;50.918;5.338;2024-03-02T12:24:23;14.20;99.90
40828;DHT22;26549;50.918;5.338;2024-03-02T12:26:53;14.20;99.90
40828;DHT22;26549;50.918;5.338;2024-03-02T12:29:22;14.30;99.90
40828;DHT22;26549;50.918;5.338;2024-03-02T12:31:52;14.20;99.90
40828;DHT22;26549;50.918;5.338;2024-03-02T12:34:19;14.30;99.90
40828;DHT22;26549;50.918;5.338;2024-03-02T12:36:46;14.30;99.90
40828;DHT22;26549;50.918;5.338;2024-03-02T12:39:21;14.40;99.90
40828;DHT22;26549;50.918;5.338;2024-03-02T12:41:51;14.40;99.90
40828;DHT22;26549;50.918;5.338;2024-03-02T12:44:19;14.40;99.90
40828;DHT22;26549;50.918;5.338;2024-03-02T12:46:46;14.40;99.90
40828;DHT22;26549;50.918;5.338;2024-03-02T12:49:16;14.50;99.90
40828;DHT22;26549;50.918;5.338;2024-03-02T12:51:45;14.30;99.90
40828;DHT22;26549;50.918;5.338;2024-03-02T12:54:23;14.40;99.90
40828;DHT22;26549;50.918;5.338;2024-03-02T12:57:00;14.50;99.90
40828;DHT22;26549;50.918;5.338;2024-03-02T12:59:28;14.40;99.90
40828;DHT22;26549;50.918;5.338;2024-03-02T13:01:58;14.40;99.90
40828;DHT22;26549;50.918;5.338;2024-03-02T13:04:28;14.40;99.90
40828;DHT22;26549;50.918;5.338;2024-03-02T13:06:55;14.60;99.90
40828;DHT22;26549;50.918;5.338;2024-03-02T13:09:23;14.60;99.90
40828;DHT22;26549;50.918;5.338;2024-03-02T13:11:51;14.70;99.90
40828;DHT22;26549;50.918;5.338;2024-03-02T13:14:17;14.80;99.90
40828;DHT22;26549;50.918;5.338;2024-03-02T13:16:45;14.70;99.90
40828;DHT22;26549;50.918;5.338;2024-03-02T13:19:12;14.70;99.90
40828;DHT22;26549;50.918;5.338;2024-03-02T13:21:38;14.70;99.90
40828;DHT22;26549;50.918;5.338;2024-03-02T13:24:05;14.60;99.90
40828;DHT22;26549;50.918;5.338;2024-03-02T13:26:31;14.80;99.90
40828;DHT22;26549;50.918;5.338;2024-03-02T13:28:58;14.80;99.90
40828;DHT22;26549;50.918;5.338;2024-03-02T13:31:24;14.90;99.90
40828;DHT22;26549;50.918;5.338;2024-03-02T13:33:50;14.90;99.90
40828;DHT22;26549;50.918;5.338;2024-03-02T13:36:15;14.80;99.90
40828;DHT22;26549;50.918;5.338;2024-03-02T13:38:41;14.80;99.90
40828;DHT22;26549;50.918;5.338;2024-03-02T13:41:07;14.80;99.90
40828;DHT22;26549;50.918;5.338;2024-03-02T13:43:33;14.70;99.90
40828;DHT22;26549;50.918;5.338;2024-03-02T13:46:03;14.80;99.90
40828;DHT22;26549;50.918;5.338;2024-03-02T13:48:29;14.70;99.90
40828;DHT22;26549;50.918;5.338;2024-03-02T13:50:56;14.70;99.90
40828;DHT22;26549;50.918;5.338;2024-03-02T13:53:22;14.80;99.90
40828;DHT22;26549;50.918;5.338;2024-03-02T13:55:49;14.90;99.90
40828;DHT22;26549;50.918;5.338;2024-03-02T13:58:15;15.00;99.90
40828;DHT22;26549;50.918;5.338;2024-03-02T14:00:40;15.10;99.90
40828;DHT22;26549;50.918;5.338;2024-03-02T14:03:06;15.00;99.90
40828;DHT22;26549;50.918;5.338;2024-03-02T14:05:33;15.00;99.90
40828;DHT22;26549;50.918;5.338;2024-03-02T14:08:01;15.10;99.90
40828;DHT22;26549;50.918;5.338;2024-03-02T14:10:27;15.10;99.90
40828;DHT22;26549;50.918;5.338;2024-03-02T14:12:54;15.20;99.90
40828;DHT22;26549;50.918;5.338;2024-03-02T14:15:41;15.20;99.90
40828;DHT22;26549;50.918;5.338;2024-03-02T14:18:08;15.10;99.90
40828;DHT22;26549;50.918;5.338;2024-03-02T14:20:44;15.20;99.90
40828;DHT22;26549;50.918;5.338;2024-03-02T14:23:29;15.20;99.90
40828;DHT22;26549;50.918;5.338;2024-03-02T14:25:55;15.10;99.90
40828;DHT22;26549;50.918;5.338;2024-03-02T14:28:21;15.30;99.90
40828;DHT22;26549;50.918;5.338;2024-03-02T14:30:47;15.20;99.90
40828;DHT22;26549;50.918;5.338;2024-03-02T14:33:13;15.20;99.90
40828;DHT22;26549;50.918;5.338;2024-03-02T14:35:39;15.20;99.90
40828;DHT22;26549;50.918;5.338;2024-03-02T14:38:05;15.10;99.90
40828;DHT22;26549;50.918;5.338;2024-03-02T14:40:31;15.10;99.90
40828;DHT22;26549;50.918;5.338;2024-03-02T14:42:59;15.10;99.90
40828;DHT22;26549;50.918;5.338;2024-03-02T14:45:28;14.90;99.90
40828;DHT22;26549;50.918;5.338;2024-03-02T14:47:55;14.90;99.90
40828;DHT22;26549;50.918;5.338;2024-03-02T14:50:21;14.80;99.90
40828;DHT22;26549;50.918;5.338;2024-03-02T14:52:48;14.80;99.90
40828;DHT22;26549;50.918;5.338;2024-03-02T14:55:14;14.80;99.90
40828;DHT22;26549;50.918;5.338;2024-03-02T14:57:39;14.90;99.90
40828;DHT22;26549;50.918;5.338;2024-03-02T15:00:06;14.90;99.90
40828;DHT22;26549;50.918;5.338;2024-03-02T15:02:39;14.90;99.90
40828;DHT22;26549;50.918;5.338;2024-03-02T15:05:05;14.80;99.90
40828;DHT22;26549;50.918;5.338;2024-03-02T15:07:34;14.80;99.90
40828;DHT22;26549;50.918;5.338;2024-03-02T15:10:01;14.70;99.90
40828;DHT22;26549;50.918;5.338;2024-03-02T15:12:27;14.70;99.90
40828;DHT22;26549;50.918;5.338;2024-03-02T15:14:53;14.80;99.90
40828;DHT22;26549;50.918;5.338;2024-03-02T15:17:20;14.80;99.90
40828;DHT22;26549;50.918;5.338;2024-03-02T15:19:46;14.70;99.90
40828;DHT22;26549;50.918;5.338;2024-03-02T15:22:12;14.70;99.90
40828;DHT22;26549;50.918;5.338;2024-03-02T15:24:38;14.60;99.90
40828;DHT22;26549;50.918;5.338;2024-03-02T15:27:05;14.50;99.90
40828;DHT22;26549;50.918;5.338;2024-03-02T15:29:31;14.40;99.90
40828;DHT22;26549;50.918;5.338;2024-03-02T15:31:58;14.30;99.90
40828;DHT22;26549;50.918;5.338;2024-03-02T15:34:25;14.20;99.90
40828;DHT22;26549;50.918;5.338;2024-03-02T15:36:51;14.30;99.90
40828;DHT22;26549;50.918;5.338;2024-03-02T15:39:17;14.30;99.90
40828;DHT22;26549;50.918;5.338;2024-03-02T15:41:44;14.30;99.90
40828;DHT22;26549;50.918;5.338;2024-03-02T15:44:10;14.30;99.90